Terminal Aerodrome Forecast
Issued by NWS

Home | Current Version | Previous Version | Text Only | Print | Product List | Glossary On
Versions: 1 2 3 4 5 6 7 8 9 10 11 12 13 14
000
FTAK31 PAJN 231100
TAFAJN
TAF
PAJN 231139Z 2312/2412 00000KT P6SM BCFG SCT200
     FM231400 18006KT P6SM SCT150
     FM231800 24010KT P6SM BKN150
     FM240800 VRB05KT P6SM VCSH SCT040 BKN100=

USA.gov is the U.S. government's official web portal to all federal, state and local government web resources and services.